Time;durP1;ratioP1;P1;durP2;ratioP2;P2;SDS_P1;SDS_P2;PMS_P1;PMS_P2;Temp;Humidity;BMP_temperature;BMP_pressure;BME280_temperature;BME280_humidity;BME280_pressure;Samples;Min_cycle;Max_cycle;Signal;HPM_P1;HPM_P2
2023/12/25 00:00:37;;;;;;;0.20;0.20;;;;;;;6.93;100.00;95675.91;6166524;23;20455;-75
2023/12/25 00:03:23;;;;;;;0.20;0.20;;;;;;;6.90;100.00;95671.03;6168758;23;20351;-75
2023/12/25 00:06:09;;;;;;;0.20;0.20;;;;;;;6.91;100.00;95657.50;6167709;23;20031;-75
2023/12/25 00:08:55;;;;;;;0.20;0.20;;;;;;;6.89;100.00;95680.06;6166328;23;20025;-75
2023/12/25 00:11:41;;;;;;;0.20;0.20;;;;;;;6.90;100.00;95671.03;6168940;23;20088;-74
2023/12/25 00:14:27;;;;;;;0.30;0.30;;;;;;;6.90;100.00;95655.09;6145539;23;20092;-77
2023/12/25 00:17:15;;;;;;;0.20;0.20;;;;;;;6.91;100.00;95667.34;6168301;23;20522;-75
2023/12/25 00:20:03;;;;;;;0.20;0.20;;;;;;;6.88;100.00;95665.97;6166962;23;20020;-74
2023/12/25 00:22:49;;;;;;;0.20;0.20;;;;;;;6.86;100.00;95660.09;6166070;23;20020;-74
2023/12/25 00:25:35;;;;;;;0.20;0.20;;;;;;;6.89;100.00;95664.94;6145358;23;20045;-77
2023/12/25 00:28:21;;;;;;;0.20;0.20;;;;;;;6.93;100.00;95671.38;6142668;23;20025;-75
2023/12/25 00:31:09;;;;;;;0.20;0.20;;;;;;;6.90;100.00;95655.88;6167534;23;20333;-75
2023/12/25 00:33:55;;;;;;;0.20;0.20;;;;;;;6.81;100.00;95656.56;6166958;23;20029;-76
2023/12/25 00:36:41;;;;;;;0.20;0.20;;;;;;;6.80;100.00;95661.06;6146037;23;20218;-78
2023/12/25 00:39:27;;;;;;;0.20;0.20;;;;;;;6.85;100.00;95677.13;6166684;23;20025;-76
2023/12/25 00:42:13;;;;;;;0.25;0.25;;;;;;;6.85;100.00;95669.13;6143807;23;20028;-75
2023/12/25 00:44:59;;;;;;;0.20;0.20;;;;;;;6.84;100.00;95670.16;6168258;23;20025;-76
2023/12/25 00:47:47;;;;;;;0.10;0.10;;;;;;;6.90;100.00;95674.50;6165404;23;20285;-77
2023/12/25 00:50:33;;;;;;;0.20;0.20;;;;;;;6.87;100.00;95693.63;6168959;23;20498;-74
2023/12/25 00:53:19;;;;;;;0.20;0.20;;;;;;;6.86;100.00;95672.59;6145024;23;20029;-75
2023/12/25 00:56:05;;;;;;;0.10;0.10;;;;;;;6.84;100.00;95674.66;6142685;23;20068;-77
2023/12/25 00:58:51;;;;;;;0.20;0.20;;;;;;;6.82;100.00;95674.13;6166498;23;20021;-76
2023/12/25 01:01:37;;;;;;;0.17;0.17;;;;;;;6.84;100.00;95667.50;6167058;23;20448;-75
2023/12/25 01:04:23;;;;;;;0.20;0.20;;;;;;;6.89;100.00;95675.56;6168080;23;20052;-74
2023/12/25 01:07:09;;;;;;;0.10;0.10;;;;;;;6.85;100.00;95677.13;6166146;23;20204;-76
2023/12/25 01:09:55;;;;;;;0.10;0.10;;;;;;;6.86;100.00;95680.56;6144138;23;20426;-77
2023/12/25 01:12:42;;;;;;;0.20;0.20;;;;;;;6.82;100.00;95668.81;6166021;23;20052;-78
2023/12/25 01:15:28;;;;;;;0.13;0.13;;;;;;;6.86;100.00;95676.06;6143988;23;20094;-78
2023/12/25 01:18:14;;;;;;;0.20;0.20;;;;;;;6.91;100.00;95673.47;6167005;23;20025;-77
2023/12/25 01:21:00;;;;;;;0.20;0.20;;;;;;;6.90;100.00;95679.03;6143276;23;20354;-75
2023/12/25 01:23:46;;;;;;;0.20;0.20;;;;;;;6.92;100.00;95680.38;6143180;23;20028;-75
2023/12/25 01:26:31;;;;;;;0.20;0.20;;;;;;;6.87;100.00;95672.34;6143710;23;20021;-77
2023/12/25 01:29:17;;;;;;;0.20;0.20;;;;;;;6.87;100.00;95683.00;6167819;23;20083;-76
2023/12/25 01:32:03;;;;;;;0.10;0.10;;;;;;;6.83;100.00;95679.19;6165272;23;20021;-77
2023/12/25 01:34:50;;;;;;;0.20;0.20;;;;;;;6.88;100.00;95678.47;6167175;23;20036;-76
2023/12/25 01:37:36;;;;;;;0.22;0.22;;;;;;;6.81;100.00;95680.50;6166760;23;20128;-75
2023/12/25 01:40:22;;;;;;;0.20;0.20;;;;;;;6.78;100.00;95671.16;6144946;23;20082;-73
2023/12/25 01:43:08;;;;;;;0.20;0.20;;;;;;;6.79;100.00;95679.94;6165261;23;20462;-75
2023/12/25 01:45:54;;;;;;;0.20;0.20;;;;;;;6.72;100.00;95677.44;6168515;23;20359;-76
2023/12/25 01:48:42;;;;;;;0.22;0.20;;;;;;;6.77;100.00;95666.88;6144397;23;20039;-73
2023/12/25 01:51:28;;;;;;;0.28;0.28;;;;;;;6.79;100.00;95686.06;6124132;23;20482;-73
2023/12/25 01:54:14;;;;;;;0.22;0.22;;;;;;;6.72;100.00;95719.97;6166191;23;20783;-73
2023/12/25 01:57:01;;;;;;;0.20;0.20;;;;;;;6.74;100.00;95699.25;6166963;23;20029;-74
2023/12/25 01:59:47;;;;;;;0.20;0.20;;;;;;;6.76;100.00;95704.34;6144356;23;20032;-76
2023/12/25 02:02:33;;;;;;;0.25;0.25;;;;;;;6.84;100.00;95685.31;6142219;23;20079;-75
2023/12/25 02:05:19;;;;;;;0.20;0.20;;;;;;;6.78;100.00;95695.09;6144819;23;20023;-77
2023/12/25 02:08:06;;;;;;;0.25;0.25;;;;;;;6.81;100.00;95710.53;6166835;23;20467;-74
2023/12/25 02:10:53;;;;;;;0.20;0.20;;;;;;;6.83;100.00;95697.00;6167789;23;20076;-74
2023/12/25 02:13:40;;;;;;;0.20;0.20;;;;;;;6.80;100.00;95716.13;6145460;23;20035;-74
2023/12/25 02:16:26;;;;;;;0.20;0.20;;;;;;;6.84;100.00;95714.56;6168478;23;20322;-76
2023/12/25 02:19:37;;;;;;;0.30;0.30;;;;;;;6.82;100.00;95717.47;6146396;23;20025;-75
2023/12/25 02:22:24;;;;;;;0.22;0.22;;;;;;;6.85;100.00;95729.50;6166919;23;20028;-73
2023/12/25 02:25:21;;;;;;;0.20;0.20;;;;;;;6.81;100.00;95736.34;6146501;23;20399;-75
2023/12/25 02:28:07;;;;;;;0.20;0.20;;;;;;;6.84;100.00;95725.19;6144563;23;20025;-76
2023/12/25 02:30:53;;;;;;;0.30;0.30;;;;;;;6.85;100.00;95732.97;6165026;23;20104;-75
2023/12/25 02:33:39;;;;;;;0.20;0.20;;;;;;;6.87;100.00;95724.72;6166067;23;20056;-76
2023/12/25 02:36:26;;;;;;;0.20;0.20;;;;;;;6.90;100.00;95727.69;6145441;23;20294;-76
2023/12/25 02:39:12;;;;;;;0.20;0.20;;;;;;;6.90;100.00;95719.72;6165766;23;20032;-76
2023/12/25 02:41:58;;;;;;;0.20;0.20;;;;;;;6.89;100.00;95727.94;6146179;23;20492;-78
2023/12/25 02:44:43;;;;;;;0.13;0.13;;;;;;;6.90;100.00;95719.72;6169397;23;20051;-77
2023/12/25 02:47:29;;;;;;;0.15;0.15;;;;;;;6.90;100.00;95725.03;6124856;23;20404;-76
2023/12/25 02:50:16;;;;;;;0.20;0.20;;;;;;;6.85;100.00;95722.31;6144663;23;20144;-74
2023/12/25 02:53:05;;;;;;;0.30;0.30;;;;;;;6.88;100.00;95719.16;6164845;23;20020;-75
2023/12/25 02:55:50;;;;;;;0.20;0.20;;;;;;;6.88;100.00;95711.19;6167954;23;20028;-74
2023/12/25 02:58:36;;;;;;;0.20;0.20;;;;;;;6.88;100.00;95721.03;6170233;23;20021;-74
2023/12/25 03:01:22;;;;;;;0.20;0.20;;;;;;;6.89;100.00;95720.78;6145254;23;20071;-74
2023/12/25 03:04:08;;;;;;;0.10;0.10;;;;;;;6.89;100.00;95736.72;6145598;23;20056;-74
2023/12/25 03:06:54;;;;;;;0.20;0.20;;;;;;;6.83;100.00;95737.69;6169741;23;20053;-74
2023/12/25 03:09:40;;;;;;;0.20;0.20;;;;;;;6.89;100.00;95741.25;6126077;23;20415;-76
2023/12/25 03:12:26;;;;;;;0.20;0.20;;;;;;;6.92;100.00;95733.56;6167313;23;20463;-74
2023/12/25 03:15:12;;;;;;;0.20;0.20;;;;;;;6.94;100.00;95730.69;6168674;23;20308;-76
2023/12/25 03:17:57;;;;;;;0.20;0.20;;;;;;;6.95;100.00;95733.09;6167362;23;20025;-77
2023/12/25 03:20:43;;;;;;;0.20;0.20;;;;;;;6.97;100.00;95738.97;6146652;23;20550;-76
2023/12/25 03:23:29;;;;;;;0.30;0.30;;;;;;;6.96;100.00;95736.56;6167091;23;20373;-75
2023/12/25 03:26:15;;;;;;;0.20;0.20;;;;;;;6.94;100.00;95722.72;6145256;23;20043;-76
2023/12/25 03:29:01;;;;;;;0.22;0.22;;;;;;;6.96;100.00;95745.34;6143870;23;20028;-77
2023/12/25 03:31:47;;;;;;;0.28;0.28;;;;;;;6.96;100.00;95721.41;6145227;23;20729;-76
2023/12/25 03:34:45;;;;;;;0.20;0.20;;;;;;;6.96;100.00;95718.75;6144874;23;20048;-76
2023/12/25 03:37:31;;;;;;;0.20;0.20;;;;;;;6.94;100.00;95720.06;6144576;23;20060;-79
2023/12/25 03:40:19;;;;;;;0.20;0.20;;;;;;;6.95;100.00;95714.50;6148447;23;20021;-77
2023/12/25 03:43:05;;;;;;;0.13;0.13;;;;;;;6.92;100.00;95709.63;6146551;23;20298;-76
2023/12/25 03:45:51;;;;;;;0.20;0.20;;;;;;;6.90;100.00;95721.56;6145825;23;20052;-77
2023/12/25 03:48:36;;;;;;;0.20;0.20;;;;;;;6.91;100.00;95709.88;6167310;23;20021;-73
2023/12/25 03:51:22;;;;;;;0.20;0.20;;;;;;;6.87;100.00;95706.13;6170248;23;20329;-73
2023/12/25 03:54:08;;;;;;;0.20;0.20;;;;;;;6.92;100.00;95720.28;6166922;23;20579;-75
2023/12/25 03:56:54;;;;;;;0.17;0.17;;;;;;;6.94;100.00;95723.53;6143466;23;20025;-74
2023/12/25 03:59:40;;;;;;;0.20;0.20;;;;;;;6.93;100.00;95727.22;6168593;23;20028;-75
2023/12/25 04:02:26;;;;;;;0.20;0.20;;;;;;;6.92;100.00;95738.91;6164205;23;20021;-74
2023/12/25 04:05:14;;;;;;;0.10;0.10;;;;;;;6.92;100.00;95733.56;6166273;23;20021;-74
2023/12/25 04:08:00;;;;;;;0.20;0.20;;;;;;;6.95;100.00;95745.59;6145551;23;20029;-73
2023/12/25 04:10:45;;;;;;;0.20;0.20;;;;;;;6.96;100.00;95756.00;6168048;23;20029;-75
2023/12/25 04:13:31;;;;;;;0.28;0.28;;;;;;;6.94;100.00;95746.66;6124316;23;20021;-76
2023/12/25 04:16:21;;;;;;;0.30;0.30;;;;;;;6.97;100.00;95752.28;6167481;23;20025;-76
2023/12/25 04:19:08;;;;;;;0.20;0.20;;;;;;;6.98;100.00;95753.88;6145390;23;20415;-77
2023/12/25 04:21:54;;;;;;;0.13;0.13;;;;;;;6.97;100.00;95741.66;6143527;23;20060;-74
2023/12/25 04:24:40;;;;;;;0.30;0.30;;;;;;;6.95;100.00;95729.66;6169183;23;20025;-74
2023/12/25 04:27:26;;;;;;;0.20;0.20;;;;;;;6.95;100.00;95748.25;6148495;23;20163;-77
2023/12/25 04:30:13;;;;;;;0.20;0.20;;;;;;;6.96;100.00;95748.03;6145634;23;20044;-75
2023/12/25 04:32:59;;;;;;;0.13;0.13;;;;;;;6.96;100.00;95737.38;6144564;23;20025;-76
2023/12/25 04:35:47;;;;;;;0.20;0.20;;;;;;;6.98;100.00;95742.44;6146801;23;20020;-78
2023/12/25 04:38:34;;;;;;;0.20;0.20;;;;;;;6.93;100.00;95729.09;6126832;23;20108;-75
2023/12/25 04:41:21;;;;;;;0.20;0.20;;;;;;;6.95;100.00;95733.09;6146658;23;20036;-77
2023/12/25 04:44:07;;;;;;;0.20;0.20;;;;;;;6.97;100.00;95740.84;6165408;23;20017;-75
2023/12/25 04:46:53;;;;;;;0.20;0.20;;;;;;;7.02;100.00;95742.78;6167873;23;20020;-75
2023/12/25 04:49:39;;;;;;;0.10;0.10;;;;;;;7.00;100.00;95750.97;6143968;23;20107;-74
2023/12/25 04:52:25;;;;;;;0.20;0.20;;;;;;;7.02;100.00;95737.47;6145099;23;20024;-76
2023/12/25 04:55:11;;;;;;;0.20;0.20;;;;;;;7.04;100.00;95748.66;6167104;23;20063;-76
2023/12/25 04:58:00;;;;;;;0.10;0.10;;;;;;;7.07;100.00;95753.47;6145393;23;20469;-77
2023/12/25 05:00:47;;;;;;;0.20;0.20;;;;;;;7.02;100.00;95753.44;6144422;23;20021;-76
2023/12/25 05:03:33;;;;;;;0.20;0.20;;;;;;;7.02;100.00;95748.09;6146189;23;20099;-75
2023/12/25 05:06:19;;;;;;;0.20;0.20;;;;;;;7.04;100.00;95746.00;6148830;23;20095;-75
2023/12/25 05:09:05;;;;;;;0.22;0.22;;;;;;;7.06;100.00;95754.53;6147902;23;20420;-75
2023/12/25 05:11:51;;;;;;;0.20;0.20;;;;;;;7.07;100.00;95748.16;6147753;23;20735;-77
2023/12/25 05:14:37;;;;;;;0.20;0.20;;;;;;;7.07;100.00;95743.66;6126058;23;20482;-75
2023/12/25 05:17:23;;;;;;;0.20;0.20;;;;;;;7.09;100.00;95743.44;6147602;23;20071;-74
2023/12/25 05:20:09;;;;;;;0.20;0.20;;;;;;;7.08;100.00;95747.94;6167447;23;20024;-74
2023/12/25 05:22:56;;;;;;;0.20;0.20;;;;;;;7.07;100.00;95740.19;6147831;23;20032;-76
2023/12/25 05:25:43;;;;;;;0.20;0.20;;;;;;;7.11;100.00;95755.44;6171874;23;20164;-76
2023/12/25 05:28:29;;;;;;;0.20;0.20;;;;;;;7.09;100.00;95741.56;6169945;23;20356;-76
2023/12/25 05:31:14;;;;;;;0.20;0.20;;;;;;;7.10;100.00;95745.03;6170640;23;20021;-78
2023/12/25 05:34:00;;;;;;;0.20;0.20;;;;;;;7.01;100.00;95722.56;6169301;23;20044;-76
2023/12/25 05:36:46;;;;;;;0.17;0.17;;;;;;;7.11;100.00;95730.69;6146858;23;20682;-76
2023/12/25 05:39:32;;;;;;;0.20;0.20;;;;;;;7.10;100.00;95740.53;6170890;23;20349;-76
2023/12/25 05:42:18;;;;;;;0.25;0.25;;;;;;;7.11;100.00;95728.00;6167929;23;20451;-77
2023/12/25 05:45:05;;;;;;;0.20;0.20;;;;;;;7.12;100.00;95741.06;6170722;23;20447;-76
2023/12/25 05:47:51;;;;;;;0.17;0.17;;;;;;;7.10;100.00;95745.03;6171046;23;20025;-76
2023/12/25 05:50:37;;;;;;;0.20;0.20;;;;;;;7.14;100.00;95749.59;6173352;23;20024;-78
2023/12/25 05:53:24;;;;;;;0.20;0.20;;;;;;;7.15;100.00;95742.44;6171427;23;20025;-77
2023/12/25 05:56:10;;;;;;;0.20;0.20;;;;;;;7.11;100.00;95738.66;6169783;23;20036;-76
2023/12/25 05:58:56;;;;;;;0.20;0.20;;;;;;;7.11;100.00;95757.28;6148815;23;20025;-75
2023/12/25 06:01:43;;;;;;;0.20;0.20;;;;;;;7.10;100.00;95739.72;6171019;23;20031;-77
2023/12/25 06:04:29;;;;;;;0.20;0.20;;;;;;;7.06;100.00;95755.34;6173400;23;20356;-76
2023/12/25 06:07:14;;;;;;;0.20;0.20;;;;;;;7.04;100.00;95761.97;6172976;23;20025;-75
2023/12/25 06:10:00;;;;;;;0.20;0.20;;;;;;;7.07;100.00;95766.78;6172857;23;20470;-77
2023/12/25 06:12:46;;;;;;;0.20;0.20;;;;;;;7.04;100.00;95757.44;6148911;23;20030;-75
2023/12/25 06:15:32;;;;;;;0.20;0.20;;;;;;;7.02;100.00;95758.75;6172972;23;20055;-76
2023/12/25 06:18:18;;;;;;;0.10;0.10;;;;;;;7.06;100.00;95758.00;6170799;23;20322;-78
2023/12/25 06:21:04;;;;;;;0.20;0.20;;;;;;;7.06;100.00;95759.84;6173173;23;20104;-76
2023/12/25 06:23:50;;;;;;;0.20;0.20;;;;;;;7.07;100.00;95764.94;6170462;23;20029;-74
2023/12/25 06:26:36;;;;;;;0.20;0.20;;;;;;;7.07;100.00;95758.81;6173404;23;20031;-74
2023/12/25 06:29:22;;;;;;;0.20;0.20;;;;;;;7.06;100.00;95760.66;6171920;23;20105;-76
2023/12/25 06:32:08;;;;;;;0.20;0.20;;;;;;;7.08;100.00;95752.44;6170436;23;20053;-76
2023/12/25 06:34:54;;;;;;;0.20;0.20;;;;;;;7.09;100.00;95765.50;6150763;23;20021;-76
2023/12/25 06:37:40;;;;;;;0.20;0.20;;;;;;;6.99;100.00;95762.69;6171608;23;20111;-76
2023/12/25 06:40:26;;;;;;;0.20;0.20;;;;;;;7.01;100.00;95765.13;6172569;23;20060;-76
2023/12/25 06:43:12;;;;;;;0.20;0.20;;;;;;;7.03;100.00;95750.53;6171890;23;20024;-77
2023/12/25 06:45:58;;;;;;;0.20;0.20;;;;;;;6.96;100.00;95758.66;6171584;23;20043;-78
2023/12/25 06:48:44;;;;;;;0.20;0.20;;;;;;;7.03;100.00;95765.69;6172391;23;20021;-77
2023/12/25 06:51:30;;;;;;;0.13;0.13;;;;;;;7.04;100.00;95761.97;6148840;23;20028;-73
2023/12/25 06:54:16;;;;;;;0.20;0.20;;;;;;;7.10;100.00;95766.31;6171844;23;20025;-75
2023/12/25 06:57:02;;;;;;;0.20;0.20;;;;;;;7.07;100.00;95788.06;6170210;23;20485;-76
2023/12/25 06:59:48;;;;;;;0.15;0.15;;;;;;;7.00;100.00;95774.94;6171493;23;20099;-75
2023/12/25 07:02:34;;;;;;;0.20;0.20;;;;;;;6.95;100.00;95772.19;6172675;23;20059;-76
2023/12/25 07:05:20;;;;;;;0.10;0.10;;;;;;;7.08;100.00;95771.06;6171166;23;20349;-76
2023/12/25 07:08:06;;;;;;;0.20;0.20;;;;;;;6.99;100.00;95766.13;6169996;23;20043;-76
2023/12/25 07:10:54;;;;;;;0.20;0.20;;;;;;;7.01;100.00;95779.22;6170932;23;20451;-78
2023/12/25 07:13:40;;;;;;;0.20;0.20;;;;;;;6.94;100.00;95775.91;6169191;23;20403;-74
2023/12/25 07:16:26;;;;;;;0.20;0.20;;;;;;;6.96;100.00;95797.75;6149788;23;20025;-77
2023/12/25 07:19:12;;;;;;;0.10;0.10;;;;;;;6.97;100.00;95778.09;6172243;23;20402;-75
2023/12/25 07:21:58;;;;;;;0.20;0.20;;;;;;;6.98;100.00;95783.16;6172172;23;20021;-75
2023/12/25 07:24:44;;;;;;;0.20;0.20;;;;;;;6.98;100.00;95793.78;6170328;23;20017;-77
2023/12/25 07:27:31;;;;;;;0.20;0.20;;;;;;;6.98;100.00;95791.13;6171796;23;20455;-76
2023/12/25 07:30:17;;;;;;;0.20;0.20;;;;;;;6.98;100.00;95783.16;6167767;23;20021;-78
2023/12/25 07:33:03;;;;;;;0.28;0.28;;;;;;;7.01;100.00;95784.53;6172263;23;20016;-77
2023/12/25 07:35:49;;;;;;;0.15;0.15;;;;;;;7.03;100.00;95792.28;6170961;23;20539;-76
2023/12/25 07:38:35;;;;;;;0.28;0.28;;;;;;;7.02;100.00;95785.34;6170891;23;20025;-76
2023/12/25 07:41:23;;;;;;;0.20;0.20;;;;;;;7.07;100.00;95796.84;6170681;23;20025;-75
2023/12/25 07:44:08;;;;;;;0.20;0.20;;;;;;;7.07;100.00;95799.50;6170565;23;20024;-75
2023/12/25 07:46:54;;;;;;;0.10;0.10;;;;;;;7.08;100.00;95802.97;6171874;23;20021;-75
2023/12/25 07:49:40;;;;;;;0.20;0.20;;;;;;;7.07;100.00;95804.84;6170426;23;20024;-75
2023/12/25 07:52:26;;;;;;;0.20;0.20;;;;;;;7.09;100.00;95802.75;6147402;23;20383;-75
2023/12/25 07:55:12;;;;;;;0.20;0.20;;;;;;;7.13;100.00;95805.72;6171709;23;20046;-76
2023/12/25 07:57:58;;;;;;;0.20;0.20;;;;;;;7.11;100.00;95807.84;6172577;23;20076;-78
2023/12/25 08:00:44;;;;;;;0.20;0.20;;;;;;;7.08;100.00;95808.31;6169791;23;20028;-77
2023/12/25 08:03:30;;;;;;;0.15;0.15;;;;;;;7.08;100.00;95805.63;6170266;23;20052;-76
2023/12/25 08:06:16;;;;;;;0.10;0.10;;;;;;;7.11;100.00;95805.97;6170680;23;20120;-77
2023/12/25 08:09:02;;;;;;;0.10;0.10;;;;;;;7.13;100.00;95806.53;6170578;23;20338;-76
2023/12/25 08:11:48;;;;;;;0.17;0.17;;;;;;;7.14;100.00;95807.34;6171766;23;20021;-77
2023/12/25 08:14:35;;;;;;;0.20;0.20;;;;;;;7.15;100.00;95806.28;6169130;23;20028;-75
2023/12/25 08:17:21;;;;;;;0.20;0.20;;;;;;;7.20;100.00;95812.50;6171071;23;20109;-77
2023/12/25 08:20:07;;;;;;;0.30;0.30;;;;;;;7.16;100.00;95813.22;6169726;23;20039;-76
2023/12/25 08:22:53;;;;;;;0.20;0.20;;;;;;;7.15;100.00;95798.31;6169890;23;20225;-77
2023/12/25 08:25:40;;;;;;;0.20;0.20;;;;;;;7.14;100.00;95810.00;6148097;23;20160;-75
2023/12/25 08:28:26;;;;;;;0.20;0.20;;;;;;;7.19;100.00;95805.56;6169949;23;20395;-78
2023/12/25 08:31:12;;;;;;;0.20;0.20;;;;;;;7.22;100.00;95814.91;6171663;23;20017;-76
2023/12/25 08:33:58;;;;;;;0.20;0.20;;;;;;;7.20;100.00;95822.34;6171896;23;20052;-76
2023/12/25 08:36:44;;;;;;;0.20;0.20;;;;;;;7.28;100.00;95821.94;6170377;23;20017;-75
2023/12/25 08:39:31;;;;;;;0.20;0.20;;;;;;;7.23;100.00;95813.88;6148960;23;20503;-77
2023/12/25 08:42:17;;;;;;;0.20;0.20;;;;;;;7.18;100.00;95819.13;6170549;23;20048;-77
2023/12/25 08:45:06;;;;;;;0.17;0.17;;;;;;;7.14;100.00;95820.66;6170659;23;20101;-76
2023/12/25 08:47:52;;;;;;;0.30;0.30;;;;;;;7.14;100.00;95826.78;6148794;23;20303;-75
2023/12/25 08:50:38;;;;;;;0.20;0.20;;;;;;;7.17;100.00;95825.50;6169168;23;20081;-75
2023/12/25 08:53:24;;;;;;;0.20;0.20;;;;;;;7.14;100.00;95815.31;6169233;23;20499;-75
2023/12/25 08:56:11;;;;;;;0.20;0.20;;;;;;;7.16;100.00;95834.50;6169172;23;20032;-76
2023/12/25 08:58:58;;;;;;;0.20;0.20;;;;;;;7.22;100.00;95828.22;6171958;23;20044;-77
2023/12/25 09:01:45;;;;;;;0.15;0.15;;;;;;;7.29;100.00;95839.50;6169773;23;20700;-75
2023/12/25 09:04:30;;;;;;;0.20;0.20;;;;;;;7.32;100.00;95843.56;6169807;23;20419;-75
2023/12/25 09:07:16;;;;;;;0.20;0.20;;;;;;;7.32;100.00;95823.06;6157336;23;20091;-77
2023/12/25 09:10:04;;;;;;;0.20;0.20;;;;;;;7.33;100.00;95842.50;6161636;23;20717;-77
2023/12/25 09:12:50;;;;;;;0.20;0.20;;;;;;;7.33;100.00;95821.22;6168595;23;20060;-76
2023/12/25 09:15:36;;;;;;;0.15;0.15;;;;;;;7.40;100.00;95838.63;6145860;23;20025;-76
2023/12/25 09:18:22;;;;;;;0.10;0.10;;;;;;;7.32;100.00;95848.88;6167433;23;20021;-78
2023/12/25 09:21:08;;;;;;;0.20;0.20;;;;;;;7.35;100.00;95864.34;6168908;23;20021;-76
2023/12/25 09:23:54;;;;;;;0.20;0.20;;;;;;;7.32;100.00;95848.88;6168552;23;20100;-80
2023/12/25 09:26:40;;;;;;;0.20;0.20;;;;;;;7.42;100.00;95862.34;6171928;23;20104;-75
2023/12/25 09:29:28;;;;;;;0.20;0.20;;;;;;;7.29;100.00;95862.66;6123804;23;20477;-77
2023/12/25 09:32:14;;;;;;;0.20;0.20;;;;;;;7.29;100.00;95860.81;6138254;23;20131;-77
2023/12/25 09:35:00;;;;;;;0.20;0.20;;;;;;;7.38;100.00;95856.69;6165081;23;20021;-75
2023/12/25 09:37:46;;;;;;;0.20;0.20;;;;;;;7.29;100.00;95866.13;6151817;23;20645;-77
2023/12/25 09:40:32;;;;;;;0.20;0.20;;;;;;;7.34;100.00;95860.91;6158479;23;20025;-76
2023/12/25 09:43:18;;;;;;;0.20;0.20;;;;;;;7.27;100.00;95870.88;6157202;23;20581;-78
2023/12/25 09:46:04;;;;;;;0.20;0.20;;;;;;;7.33;100.00;95872.59;6157759;23;20510;-77
2023/12/25 09:48:50;;;;;;;0.20;0.20;;;;;;;7.41;100.00;95882.84;6167304;23;20028;-76
2023/12/25 09:51:36;;;;;;;0.20;0.20;;;;;;;7.44;100.00;95890.31;6168269;23;20025;-77
2023/12/25 09:54:22;;;;;;;0.20;0.20;;;;;;;7.46;100.00;95866.94;6165995;23;20379;-75
2023/12/25 09:57:10;;;;;;;0.20;0.20;;;;;;;7.53;100.00;95872.09;6168396;23;20209;-75
2023/12/25 09:59:57;;;;;;;0.20;0.20;;;;;;;7.60;100.00;95893.22;6169505;23;20029;-77
2023/12/25 10:02:45;;;;;;;0.20;0.20;;;;;;;7.68;100.00;95882.16;6166591;23;20699;-76
2023/12/25 10:05:31;;;;;;;0.20;0.20;;;;;;;7.74;100.00;95874.00;6168653;23;20721;-77
2023/12/25 10:08:17;;;;;;;0.20;0.20;;;;;;;7.66;100.00;95862.97;6169350;23;20021;-76
2023/12/25 10:11:04;;;;;;;0.20;0.20;;;;;;;7.64;100.00;95859.75;6170484;23;20039;-77
2023/12/25 10:13:50;;;;;;;0.20;0.20;;;;;;;7.68;100.00;95863.53;6169449;23;20051;-77
2023/12/25 10:16:36;;;;;;;0.25;0.25;;;;;;;7.74;100.00;95852.69;6170568;23;20039;-76
2023/12/25 10:19:21;;;;;;;0.20;0.20;;;;;;;7.69;100.00;95857.16;6168999;23;20100;-77
2023/12/25 10:22:10;;;;;;;0.20;0.20;;;;;;;7.65;100.00;95866.69;6170887;23;20025;-77
2023/12/25 10:25:16;;;;;;;0.10;0.10;;;;;;;7.79;100.00;95865.31;6169705;23;20095;-75
2023/12/25 10:28:10;;;;;;;0.20;0.20;;;;;;;7.77;100.00;95865.53;6140734;23;20440;-75
2023/12/25 10:31:03;;;;;;;0.20;0.20;;;;;;;7.74;100.00;95857.22;6121649;23;20052;-76
2023/12/25 10:33:57;;;;;;;0.17;0.17;;;;;;;7.73;100.00;95852.94;6158625;23;20359;-76
2023/12/25 10:36:47;;;;;;;0.20;0.20;;;;;;;7.77;100.00;95860.19;6163757;23;20339;-77
2023/12/25 10:39:33;;;;;;;0.30;0.30;;;;;;;7.63;100.00;95852.81;6160651;23;20053;-78
2023/12/25 10:42:19;;;;;;;0.30;0.30;;;;;;;7.67;100.00;95848.59;6138070;23;20021;-76
2023/12/25 10:45:05;;;;;;;0.10;0.10;;;;;;;7.67;100.00;95861.91;6159179;23;20096;-77
2023/12/25 10:47:56;;;;;;;0.20;0.20;;;;;;;7.65;100.00;95851.50;6159180;23;20021;-77
2023/12/25 10:50:45;;;;;;;0.20;0.20;;;;;;;7.74;100.00;95857.22;6162944;23;20048;-76
2023/12/25 10:53:31;;;;;;;0.20;0.20;;;;;;;7.77;100.00;95849.53;6161496;23;20029;-76
2023/12/25 10:56:20;;;;;;;0.20;0.20;;;;;;;7.77;100.00;95846.88;6137408;23;20549;-77
2023/12/25 10:59:27;;;;;;;0.20;0.20;;;;;;;7.78;100.00;95853.84;6160525;23;20396;-76
2023/12/25 11:02:16;;;;;;;0.20;0.20;;;;;;;7.71;100.00;95839.09;6159323;23;20032;-76
2023/12/25 11:05:02;;;;;;;0.20;0.20;;;;;;;7.66;100.00;95845.13;6160145;23;20314;-77
2023/12/25 11:07:49;;;;;;;0.20;0.20;;;;;;;7.76;100.00;95849.78;6162395;23;20025;-76
2023/12/25 11:10:35;;;;;;;0.30;0.30;;;;;;;7.70;100.00;95850.75;6162146;23;20020;-76
2023/12/25 11:13:22;;;;;;;0.20;0.20;;;;;;;7.72;100.00;95848.69;6160725;23;20025;-77
2023/12/25 11:16:09;;;;;;;0.30;0.30;;;;;;;7.62;100.00;95840.53;6162145;23;20104;-76
2023/12/25 11:18:55;;;;;;;0.25;0.25;;;;;;;7.69;100.00;95855.28;6162561;23;20314;-76
2023/12/25 11:21:41;;;;;;;0.20;0.20;;;;;;;7.69;100.00;95843.81;6161364;23;20031;-78
2023/12/25 11:24:28;;;;;;;0.30;0.30;;;;;;;7.70;100.00;95858.75;6161296;23;20025;-77
2023/12/25 11:27:17;;;;;;;0.20;0.20;;;;;;;7.78;100.00;95853.84;6159612;23;20518;-79
2023/12/25 11:30:04;;;;;;;0.20;0.20;;;;;;;7.71;100.00;95847.88;6121457;23;20027;-75
2023/12/25 11:32:51;;;;;;;0.20;0.20;;;;;;;7.72;100.00;95848.69;6118288;23;20027;-77
2023/12/25 11:35:38;;;;;;;0.20;0.20;;;;;;;7.81;100.00;95839.22;6164218;23;20450;-75
2023/12/25 11:38:25;;;;;;;0.20;0.20;;;;;;;7.84;100.00;95836.06;6162222;23;20021;-75
2023/12/25 11:41:19;;;;;;;0.10;0.10;;;;;;;7.74;100.00;95818.09;6160840;23;20112;-77
2023/12/25 11:44:08;;;;;;;0.20;0.20;;;;;;;7.88;100.00;95821.19;6161370;23;20024;-76
2023/12/25 11:46:58;;;;;;;0.20;0.20;;;;;;;7.93;100.00;95828.44;6162955;23;20021;-77
2023/12/25 11:49:44;;;;;;;0.20;0.20;;;;;;;7.98;100.00;95824.00;6160485;23;20107;-77
2023/12/25 11:52:56;;;;;;;0.20;0.20;;;;;;;8.09;100.00;95820.41;6163116;23;20923;-75
2023/12/25 11:55:42;;;;;;;0.20;0.20;;;;;;;8.03;100.00;95834.72;6162294;23;20031;-74
2023/12/25 11:58:31;;;;;;;0.20;0.20;;;;;;;8.02;100.00;95835.78;6159471;23;20092;-76
2023/12/25 12:01:17;;;;;;;0.20;0.20;;;;;;;7.86;100.00;95833.97;6163044;23;20087;-77
2023/12/25 12:04:05;;;;;;;0.20;0.20;;;;;;;7.79;100.00;95838.66;6161866;23;20071;-75
2023/12/25 12:06:51;;;;;;;0.22;0.22;;;;;;;7.86;100.00;95852.63;6161773;23;20028;-76
2023/12/25 12:09:37;;;;;;;0.20;0.20;;;;;;;7.85;100.00;95832.34;6163102;23;20995;-77
2023/12/25 12:12:23;;;;;;;0.20;0.20;;;;;;;7.81;100.00;95832.03;6163621;23;20049;-77
2023/12/25 12:15:10;;;;;;;0.15;0.15;;;;;;;7.79;100.00;95826.16;6161993;23;20285;-75
2023/12/25 12:17:56;;;;;;;0.20;0.20;;;;;;;7.88;100.00;95812.41;6163050;23;20442;-79
2023/12/25 12:20:42;;;;;;;0.30;0.30;;;;;;;7.98;100.00;95831.97;6162478;23;20025;-76
2023/12/25 12:23:31;;;;;;;0.20;0.20;;;;;;;7.87;100.00;95835.56;6161850;23;20106;-77
2023/12/25 12:26:17;;;;;;;0.20;0.20;;;;;;;7.82;100.00;95827.50;6140111;23;20108;-77
2023/12/25 12:29:03;;;;;;;0.20;0.20;;;;;;;7.88;100.00;95834.53;6171297;23;20102;-75
2023/12/25 12:31:49;;;;;;;0.20;0.20;;;;;;;7.90;100.00;95829.75;6140710;23;20381;-75
2023/12/25 12:34:35;;;;;;;0.17;0.17;;;;;;;7.88;100.00;95826.53;6129751;23;20021;-77
2023/12/25 12:37:21;;;;;;;0.20;0.20;;;;;;;7.91;100.00;95831.34;6159342;23;20609;-76
2023/12/25 12:40:07;;;;;;;0.20;0.20;;;;;;;7.97;100.00;95833.03;6160866;23;20017;-77
2023/12/25 12:42:53;;;;;;;0.20;0.20;;;;;;;7.92;100.00;95835.63;6117826;23;20091;-78
2023/12/25 12:45:39;;;;;;;0.20;0.20;;;;;;;7.92;100.00;95848.94;6160640;23;20028;-76
2023/12/25 12:48:25;;;;;;;0.20;0.20;;;;;;;7.91;100.00;95843.88;6161813;23;20017;-76
2023/12/25 12:51:11;;;;;;;0.25;0.25;;;;;;;7.89;100.00;95827.34;6160635;23;20190;-78
2023/12/25 12:53:57;;;;;;;0.20;0.20;;;;;;;7.80;100.00;95824.28;6160147;23;20103;-77
2023/12/25 12:56:43;;;;;;;0.20;0.20;;;;;;;7.83;100.00;95821.13;6162133;23;20486;-76
2023/12/25 12:59:28;;;;;;;0.20;0.20;;;;;;;7.93;100.00;95831.91;6159706;23;20016;-77
2023/12/25 13:02:14;;;;;;;0.20;0.20;;;;;;;7.82;100.00;95835.50;6159274;23;20440;-75
2023/12/25 13:05:00;;;;;;;0.20;0.20;;;;;;;7.88;100.00;95847.03;6159427;23;20034;-78